Randolph, Massachusetts
Current Conditions -  °F | °C
As of 4:53 AM on Sunday 26 Oct 2014 (Local Time) from KOWD Reporting Station
Overcast Overcast  
Wind Chill: 54°   Ceiling: 10000
Heat Index: 54°   Visibility: 10mi
Dew Point: 44°   Wind: 8mph
Humidity: 69%   Direction: 260°W
Pressure: 29.45"   Gusts: NA
Location:  42.16°N, 71.04°W
Report Text: KOWD 260853Z AUTO 26007KT 10SM OVC100 12/07 A2945 RMK AO2 SLP972 T01220067 58008
Loading
Personal Weather Stations






























Interactive Weather Map
Tropical Storm Tracking
New forecast layout! Learn more

10-Day Weather Forecast

Advertisements
Track Severe Weather on mobile